SGU weather

St George Municipal Airport
St George, Utah, United States

Public forecast

Using degrees Fahrenheit for public forecast. Weather courtesy of forecast.io.

METAR (pilot weather report)

Retrieved 2019/02/21 17:56 UTC (14 minutes ago):

KSGU 211756Z AUTO 01006KT 3/4SM -SN BR BKN005 OVC011 01/M01 A2956 RMK AO2 CIG 003V007 SLP020 P0000 60000 T00061006 10006 21017 50002 FZRANO

TAF (pilot weather forecast)

Retrieved 2019/02/21 18:51 UTC (0 seconds ago):

TAF KSGU 211749Z 2118/2218 05005KT 1SM -SN BR SCT007 OVC015 FM212000 27005KT P6SM VCSH SCT020 BKN050 FM221300 VRB04KT P6SM BKN050